Time;durP1;ratioP1;P1;durP2;ratioP2;P2;SDS_P1;SDS_P2;PMS_P1;PMS_P2;Temp;Humidity;BMP_temperature;BMP_pressure;BME280_temperature;BME280_humidity;BME280_pressure;Samples;Min_cycle;Max_cycle;Signal;HPM_P1;HPM_P2
2022/05/13 00:01:24;;;;;;;4.07;2.60;;;;;;;23.27;53.86;101391.56;4995640;28;20054;-89
2022/05/13 00:03:52;;;;;;;3.97;2.67;;;;;;;23.27;53.63;101398.81;4996764;28;20382;-89
2022/05/13 00:06:20;;;;;;;8.27;2.90;;;;;;;23.27;53.83;101396.13;4995904;28;20058;-90
2022/05/13 00:08:48;;;;;;;4.03;3.20;;;;;;;23.27;53.67;101396.13;4979376;28;20046;-89
2022/05/13 00:11:15;;;;;;;4.15;2.80;;;;;;;23.27;53.69;101401.53;4995617;28;20533;-89
2022/05/13 00:13:43;;;;;;;4.25;2.58;;;;;;;23.26;53.61;101402.53;4996989;28;20042;-89
2022/05/13 00:16:11;;;;;;;3.75;2.65;;;;;;;23.26;53.56;101403.38;4979181;28;20050;-89
2022/05/13 00:18:38;;;;;;;4.72;2.95;;;;;;;23.27;53.48;101404.22;4996510;28;20077;-89
2022/05/13 00:21:06;;;;;;;4.50;2.83;;;;;;;23.27;53.70;101401.53;4996834;28;20054;-89
2022/05/13 00:23:33;;;;;;;3.25;2.53;;;;;;;23.26;53.51;101402.53;4997157;28;20046;-91
2022/05/13 00:26:00;;;;;;;4.57;2.70;;;;;;;23.26;53.50;101405.22;4996705;28;20050;-91
2022/05/13 00:28:28;;;;;;;3.97;2.67;;;;;;;23.26;53.80;101400.69;4993807;28;20503;-89
2022/05/13 00:30:55;;;;;;;4.95;3.17;;;;;;;23.25;53.78;101404.34;4994341;28;20425;-89
2022/05/13 00:33:22;;;;;;;3.75;2.95;;;;;;;23.25;53.58;101403.50;4997254;28;20053;-89
2022/05/13 00:35:50;;;;;;;4.00;2.67;;;;;;;23.24;53.77;101402.66;4998270;28;20073;-88
2022/05/13 00:38:17;;;;;;;4.82;3.00;;;;;;;23.26;53.78;101407.94;5000033;28;20039;-88
2022/05/13 00:40:46;;;;;;;4.35;2.60;;;;;;;23.25;53.54;101403.50;4999965;28;20106;-89
2022/05/13 00:43:34;;;;;;;4.65;2.70;;;;;;;23.24;53.54;101394.56;4999923;28;20043;-88
2022/05/13 00:46:03;;;;;;;3.75;2.50;;;;;;;23.24;53.41;101397.25;4999913;28;20046;-88
2022/05/13 00:48:34;;;;;;;4.80;2.47;;;;;;;23.24;53.50;101397.25;4999984;28;20038;-87
2022/05/13 00:51:05;;;;;;;3.80;2.90;;;;;;;23.24;53.50;101397.25;5000342;28;20054;-88
2022/05/13 00:53:34;;;;;;;3.90;2.70;;;;;;;23.23;53.44;101390.16;4999147;28;20046;-88
2022/05/13 00:56:02;;;;;;;5.25;2.90;;;;;;;23.23;53.30;101390.16;4996635;28;20081;-86
2022/05/13 00:58:33;;;;;;;6.07;2.80;;;;;;;23.23;53.34;101392.84;4999022;28;20050;-89
2022/05/13 01:01:01;;;;;;;5.15;2.85;;;;;;;23.23;53.74;101400.97;4998640;28;20073;-89
2022/05/13 01:03:29;;;;;;;3.97;3.28;;;;;;;23.23;53.45;101394.72;4997258;28;20047;-87
2022/05/13 01:06:00;;;;;;;4.30;2.97;;;;;;;23.23;53.43;101397.41;4998107;28;20062;-88
2022/05/13 01:08:32;;;;;;;4.35;3.00;;;;;;;23.23;53.60;101394.72;5000081;28;20043;-89
2022/05/13 01:11:02;;;;;;;5.20;2.80;;;;;;;23.23;53.70;101389.31;4999935;28;20046;-90
2022/05/13 01:13:32;;;;;;;7.30;2.70;;;;;;;23.23;53.62;101386.59;5000962;28;20051;-90
2022/05/13 01:16:00;;;;;;;4.63;2.88;;;;;;;23.22;53.64;101393.00;4998818;28;20063;-90
2022/05/13 01:18:36;;;;;;;3.30;2.38;;;;;;;23.23;53.91;101389.31;4999966;28;20403;-89
2022/05/13 01:21:06;;;;;;;5.70;2.72;;;;;;;23.22;53.75;101391.16;4999536;28;20054;-89
2022/05/13 01:23:41;;;;;;;4.82;2.70;;;;;;;23.21;53.63;101389.44;4998185;28;20050;-90
2022/05/13 01:26:15;;;;;;;5.10;3.25;;;;;;;23.23;53.69;101383.91;4997256;28;20077;-89
2022/05/13 01:28:47;;;;;;;3.80;2.50;;;;;;;23.21;53.88;101378.63;4979887;28;20058;-89
2022/05/13 01:31:24;;;;;;;3.25;2.28;;;;;;;23.20;53.87;101379.63;4997868;28;20054;-88
2022/05/13 01:33:53;;;;;;;3.72;2.45;;;;;;;23.22;53.54;101376.81;4996226;28;20502;-89
2022/05/13 01:36:21;;;;;;;4.18;2.78;;;;;;;23.20;53.88;101374.22;4996610;28;20147;-88
2022/05/13 01:38:49;;;;;;;6.03;2.92;;;;;;;23.19;53.67;101373.38;4999937;28;20386;-89
2022/05/13 01:41:18;;;;;;;5.72;3.00;;;;;;;23.19;53.82;101377.94;4998276;28;20399;-88
2022/05/13 01:43:48;;;;;;;3.75;2.78;;;;;;;23.20;53.79;101385.03;4999165;28;20043;-89
2022/05/13 01:46:16;;;;;;;4.05;2.70;;;;;;;23.18;53.67;101387.88;4981952;28;20062;-89
2022/05/13 01:48:44;;;;;;;4.75;3.10;;;;;;;23.19;53.64;101383.34;4981540;28;20054;-89
2022/05/13 01:51:12;;;;;;;3.92;2.70;;;;;;;23.19;53.52;101380.63;4997535;28;20066;-89
2022/05/13 01:53:40;;;;;;;3.90;3.00;;;;;;;23.19;53.50;101388.75;4997574;28;20069;-89
2022/05/13 01:56:08;;;;;;;5.25;3.35;;;;;;;23.19;53.78;101388.75;4997650;28;20062;-89
2022/05/13 01:58:36;;;;;;;4.70;2.53;;;;;;;23.18;53.34;101387.88;4998534;28;20053;-86
2022/05/13 02:01:05;;;;;;;4.57;2.78;;;;;;;23.18;53.45;101384.34;4998070;28;20042;-88
2022/05/13 02:03:45;;;;;;;3.85;2.58;;;;;;;23.18;53.40;101392.44;4997502;28;20051;-90
2022/05/13 02:06:16;;;;;;;3.50;2.67;;;;;;;23.17;53.36;101394.28;4998085;28;20061;-90
2022/05/13 02:08:43;;;;;;;4.10;3.20;;;;;;;23.17;53.63;101391.59;4999252;28;20050;-88
2022/05/13 02:11:11;;;;;;;4.53;2.95;;;;;;;23.17;53.33;101388.88;4999113;28;20409;-88
2022/05/13 02:13:40;;;;;;;3.67;2.88;;;;;;;23.17;53.20;101394.28;4982403;28;20057;-89
2022/05/13 02:16:08;;;;;;;4.07;2.55;;;;;;;23.18;53.56;101395.16;4996565;28;20072;-89
2022/05/13 02:18:35;;;;;;;4.35;2.75;;;;;;;23.18;53.60;101387.03;4998209;28;20054;-88
2022/05/13 02:21:03;;;;;;;4.70;2.63;;;;;;;23.17;53.35;101388.88;4999420;28;20376;-89
2022/05/13 02:23:31;;;;;;;3.47;2.70;;;;;;;23.16;53.28;101379.06;4999703;28;20042;-88
2022/05/13 02:26:01;;;;;;;3.22;2.35;;;;;;;23.18;53.62;101385.19;4996726;28;20065;-90
2022/05/13 02:28:30;;;;;;;5.50;3.17;;;;;;;23.17;53.44;101383.50;4997699;28;20057;-89
2022/05/13 02:31:01;;;;;;;6.00;3.20;;;;;;;23.18;53.25;101381.63;4998162;28;20046;-89
2022/05/13 02:33:30;;;;;;;6.13;2.88;;;;;;;23.16;53.31;101381.75;4997169;28;20050;-89
2022/05/13 02:35:59;;;;;;;3.83;2.50;;;;;;;23.16;53.25;101383.63;4998816;28;20466;-90
2022/05/13 02:38:27;;;;;;;3.90;2.88;;;;;;;23.15;53.54;101380.06;4996291;28;20474;-89
2022/05/13 02:41:13;;;;;;;4.55;2.90;;;;;;;23.15;53.22;101381.91;4995599;28;20054;-88
2022/05/13 02:43:41;;;;;;;5.93;2.67;;;;;;;23.15;53.27;101388.16;4996488;28;20368;-88
2022/05/13 02:46:09;;;;;;;4.85;3.20;;;;;;;23.15;53.21;101382.75;4997314;28;20054;-88
2022/05/13 02:48:37;;;;;;;3.85;2.63;;;;;;;23.15;53.49;101393.56;4997312;28;20419;-88
2022/05/13 02:51:05;;;;;;;5.05;3.03;;;;;;;23.14;53.20;101385.63;4998277;28;20405;-88
2022/05/13 02:53:32;;;;;;;3.85;2.53;;;;;;;23.14;53.24;101388.31;4997196;28;20042;-88
2022/05/13 02:55:59;;;;;;;5.10;2.92;;;;;;;23.13;53.12;101384.78;4995273;28;20050;-88
2022/05/13 02:58:27;;;;;;;3.65;2.70;;;;;;;23.14;53.13;101382.91;4997370;28;20050;-87
2022/05/13 03:00:55;;;;;;;5.30;3.13;;;;;;;23.12;53.41;101385.75;4996138;28;20058;-87
2022/05/13 03:03:22;;;;;;;3.78;2.47;;;;;;;23.13;53.13;101383.88;4997433;28;20046;-88
2022/05/13 03:05:50;;;;;;;3.55;2.40;;;;;;;23.12;53.19;101384.91;4997053;28;20054;-89
2022/05/13 03:08:19;;;;;;;3.47;2.75;;;;;;;23.12;53.28;101385.75;4996538;28;20053;-89
2022/05/13 03:10:46;;;;;;;4.38;2.75;;;;;;;23.12;53.39;101388.44;4997056;28;20054;-89
2022/05/13 03:13:19;;;;;;;5.30;2.75;;;;;;;23.12;53.05;101391.16;4995592;28;20414;-91
2022/05/13 03:15:47;;;;;;;4.95;2.92;;;;;;;23.12;52.98;101388.44;4994000;28;20047;-90
2022/05/13 03:18:15;;;;;;;4.45;2.55;;;;;;;23.12;53.30;101387.59;4994897;28;20061;-89
2022/05/13 03:20:43;;;;;;;7.85;2.90;;;;;;;23.11;53.01;101386.75;4995465;28;20046;-90
2022/05/13 03:23:10;;;;;;;3.05;2.45;;;;;;;23.11;52.90;101384.03;4980087;28;20057;-89
2022/05/13 03:25:37;;;;;;;3.53;2.53;;;;;;;23.12;53.22;101383.03;4978999;28;20050;-90
2022/05/13 03:28:05;;;;;;;3.38;2.47;;;;;;;23.13;52.98;101383.88;4996058;28;20494;-89
2022/05/13 03:30:33;;;;;;;4.15;2.60;;;;;;;23.12;53.01;101388.44;4996984;28;20042;-91
2022/05/13 03:33:00;;;;;;;3.53;2.65;;;;;;;23.12;52.93;101387.59;4998201;28;20046;-92
2022/05/13 03:35:28;;;;;;;4.40;2.50;;;;;;;23.11;52.98;101383.19;4996634;28;20529;-90
2022/05/13 03:37:55;;;;;;;3.17;2.67;;;;;;;23.12;52.97;101390.28;4994654;28;20070;-89
2022/05/13 03:40:23;;;;;;;4.22;2.78;;;;;;;23.11;53.26;101386.75;4996065;28;20481;-89
2022/05/13 03:42:50;;;;;;;3.90;2.50;;;;;;;23.10;52.86;101387.75;4996568;28;20046;-85
2022/05/13 03:45:19;;;;;;;3.80;2.45;;;;;;;23.10;52.84;101387.75;4996090;28;20046;-87
2022/05/13 03:47:48;;;;;;;5.90;3.03;;;;;;;23.11;52.68;101397.56;4997037;28;20038;-87
2022/05/13 03:50:15;;;;;;;5.10;2.90;;;;;;;23.09;53.00;101388.75;4996516;28;20047;-87
2022/05/13 03:52:43;;;;;;;4.30;2.60;;;;;;;23.09;52.93;101391.47;4996294;28;20387;-88
2022/05/13 03:55:11;;;;;;;3.97;2.65;;;;;;;23.09;52.86;101390.56;4978470;28;20055;-88
2022/05/13 03:57:40;;;;;;;3.13;2.45;;;;;;;23.09;52.79;101391.47;4994201;28;20061;-88
2022/05/13 04:00:09;;;;;;;3.72;2.85;;;;;;;23.09;52.82;101387.88;4996008;28;20053;-88
2022/05/13 04:02:38;;;;;;;4.03;2.72;;;;;;;23.09;52.98;101388.75;4995082;28;20050;-89
2022/05/13 04:10:47;;;;;;;4.07;2.60;;;;;;;23.08;52.81;101387.03;4996436;28;20411;-87
2022/05/13 04:16:04;;;;;;;3.38;2.60;;;;;;;23.08;52.71;101394.28;4996508;28;20042;-87
2022/05/13 04:18:39;;;;;;;3.58;2.33;;;;;;;23.08;52.70;101394.28;4997295;28;20054;-87
2022/05/13 04:21:12;;;;;;;4.43;2.67;;;;;;;23.06;52.73;101399.84;5008290;28;20046;-89
2022/05/13 04:23:43;;;;;;;3.78;2.35;;;;;;;23.06;52.59;101399.84;5004081;28;20057;-88
2022/05/13 04:26:14;;;;;;;3.40;2.80;;;;;;;23.06;52.36;101394.44;4995680;28;20057;-87
2022/05/13 04:28:44;;;;;;;3.80;2.85;;;;;;;23.07;52.70;101400.69;4996396;28;20061;-87
2022/05/13 04:31:14;;;;;;;4.85;2.55;;;;;;;23.07;52.36;101406.09;4995897;28;20050;-86
2022/05/13 04:33:42;;;;;;;3.75;2.50;;;;;;;23.06;52.73;101407.09;4994789;28;20398;-86
2022/05/13 04:36:09;;;;;;;7.68;2.85;;;;;;;23.06;52.48;101412.50;4994734;28;20505;-87
2022/05/13 04:38:37;;;;;;;4.85;2.50;;;;;;;23.06;52.65;101416.03;4977779;28;20050;-86
2022/05/13 04:43:52;;;;;;;5.20;3.00;;;;;;;23.06;52.65;101418.75;4995153;28;20050;-88
2022/05/13 04:46:20;;;;;;;4.03;2.22;;;;;;;23.05;52.37;101421.56;4994615;28;20043;-88
2022/05/13 04:48:48;;;;;;;6.30;2.95;;;;;;;23.05;52.46;101425.16;4993992;28;20406;-88
2022/05/13 04:51:19;;;;;;;5.03;2.65;;;;;;;23.05;52.36;101413.47;4995280;28;20053;-88
2022/05/13 04:53:52;;;;;;;4.22;2.83;;;;;;;23.05;52.57;101410.75;4995352;28;20061;-88
2022/05/13 04:56:21;;;;;;;6.07;2.70;;;;;;;23.04;52.58;101418.00;4996478;28;20050;-87
2022/05/13 04:58:49;;;;;;;5.97;3.42;;;;;;;23.04;52.28;101414.47;4995570;28;20053;-86
2022/05/13 05:01:18;;;;;;;5.63;2.75;;;;;;;23.05;52.60;101421.56;4994019;28;20050;-85
2022/05/13 05:03:46;;;;;;;5.90;2.83;;;;;;;23.04;52.51;101423.41;4995889;28;20069;-85
2022/05/13 05:06:15;;;;;;;4.40;2.30;;;;;;;23.03;52.48;101429.81;4994938;28;20039;-85
2022/05/13 05:08:43;;;;;;;6.22;2.90;;;;;;;23.03;52.43;101424.41;4993786;28;20494;-87
2022/05/13 05:11:12;;;;;;;4.47;2.58;;;;;;;23.05;52.14;101424.25;4995619;28;20099;-88
2022/05/13 05:13:44;;;;;;;5.65;2.60;;;;;;;23.04;52.48;101439.63;4996213;28;20054;-87
2022/05/13 05:16:12;;;;;;;4.60;3.20;;;;;;;23.03;52.20;101434.38;4995629;28;20069;-87
2022/05/13 05:18:40;;;;;;;7.47;2.83;;;;;;;23.03;52.31;101437.91;4995941;28;20047;-87
2022/05/13 05:21:09;;;;;;;3.85;2.72;;;;;;;23.02;52.21;101436.22;4997664;28;20050;-87
2022/05/13 05:23:39;;;;;;;4.20;2.72;;;;;;;23.04;52.08;101441.47;4998326;28;20058;-87
2022/05/13 05:26:07;;;;;;;4.93;2.80;;;;;;;23.04;52.09;101445.03;4998580;28;20054;-88
2022/05/13 05:28:37;;;;;;;4.47;3.20;;;;;;;23.02;52.23;101444.31;4998970;28;20399;-89
2022/05/13 05:31:06;;;;;;;4.47;2.65;;;;;;;23.03;52.30;101454.13;5000058;28;20057;-88
2022/05/13 05:33:34;;;;;;;4.63;2.72;;;;;;;23.03;52.33;101447.88;4999820;28;20050;-89
2022/05/13 05:36:02;;;;;;;4.38;2.70;;;;;;;23.02;52.01;101452.44;5012741;28;20045;-89
2022/05/13 05:38:30;;;;;;;5.43;2.85;;;;;;;23.02;52.21;101454.28;4999151;28;20051;-88
2022/05/13 05:41:00;;;;;;;5.00;3.00;;;;;;;23.03;52.24;101456.81;4998472;28;20057;-88
2022/05/13 05:43:28;;;;;;;3.85;3.03;;;;;;;23.02;52.31;101460.53;4997642;28;20458;-89
2022/05/13 05:45:58;;;;;;;4.22;2.90;;;;;;;23.03;52.03;101464.06;4997253;28;20058;-87
2022/05/13 05:48:26;;;;;;;4.25;2.70;;;;;;;23.02;51.76;101449.72;5000258;28;20050;-90
2022/05/13 05:50:57;;;;;;;3.45;2.75;;;;;;;23.03;52.01;101455.97;4997589;28;20058;-87
2022/05/13 05:59:00;;;;;;;3.58;2.42;;;;;;;23.02;51.85;101454.28;4997830;28;20054;-87
2022/05/13 06:01:28;;;;;;;3.95;2.78;;;;;;;23.02;51.89;101460.53;4999296;28;20042;-88
2022/05/13 06:03:56;;;;;;;5.53;2.92;;;;;;;23.03;51.76;101459.53;4998728;28;20038;-88
2022/05/13 06:06:25;;;;;;;4.72;2.72;;;;;;;23.03;52.15;101470.31;4997867;28;20046;-85
2022/05/13 06:08:55;;;;;;;5.07;2.80;;;;;;;23.02;52.05;101465.94;4996405;28;20379;-88
2022/05/13 06:11:23;;;;;;;5.70;2.80;;;;;;;23.03;52.14;101470.31;4998480;28;20474;-87
2022/05/13 06:13:55;;;;;;;4.28;2.60;;;;;;;23.02;52.02;101468.63;4996668;28;20073;-86
2022/05/13 06:16:25;;;;;;;4.23;3.10;;;;;;;23.03;52.19;101469.47;4998964;28;20050;-88
2022/05/13 06:18:54;;;;;;;6.03;2.58;;;;;;;23.03;52.30;101473.03;4998766;28;20050;-88
2022/05/13 06:21:21;;;;;;;5.15;2.50;;;;;;;23.04;52.08;101472.03;4998760;28;20051;-87
2022/05/13 06:23:49;;;;;;;4.72;2.92;;;;;;;23.03;52.40;101470.31;4996682;28;20069;-87
2022/05/13 06:26:16;;;;;;;5.75;3.03;;;;;;;23.04;52.58;101471.19;4981445;28;20081;-88
2022/05/13 06:28:44;;;;;;;3.47;2.40;;;;;;;23.04;52.58;101472.03;4997824;28;20061;-86
2022/05/13 06:31:11;;;;;;;7.30;3.03;;;;;;;23.05;52.21;101473.75;4996759;28;20050;-87
2022/05/13 06:33:39;;;;;;;5.28;2.70;;;;;;;23.06;52.40;101482.72;4997138;28;20046;-87
2022/05/13 06:36:07;;;;;;;6.53;2.80;;;;;;;23.06;52.58;101475.44;4998080;28;20042;-89
2022/05/13 06:38:35;;;;;;;7.15;2.40;;;;;;;23.06;52.32;101480.84;5000439;28;20050;-87
2022/05/13 06:41:02;;;;;;;9.65;2.60;;;;;;;23.07;52.55;101479.00;4998892;28;20050;-88
2022/05/13 06:43:30;;;;;;;3.50;2.50;;;;;;;23.07;52.51;101477.16;4998747;28;20050;-92
2022/05/13 06:45:57;;;;;;;5.22;3.65;;;;;;;23.07;52.07;101477.16;4981438;28;20486;-91
2022/05/13 06:48:25;;;;;;;6.22;2.38;;;;;;;23.07;52.75;101477.16;4981702;28;20058;-92
2022/05/13 06:50:53;;;;;;;4.20;2.50;;;;;;;23.08;52.62;101478.84;4979057;28;20057;-90
2022/05/13 06:53:21;;;;;;;5.18;2.45;;;;;;;23.07;52.66;101479.84;4979299;28;20061;-87
2022/05/13 06:55:50;;;;;;;6.72;2.60;;;;;;;23.08;52.57;101476.16;4995930;28;20418;-87
2022/05/13 06:58:17;;;;;;;7.28;3.03;;;;;;;23.07;51.45;101482.56;4991411;28;20073;-89
2022/05/13 07:00:45;;;;;;;5.72;3.03;;;;;;;23.05;49.03;101481.84;4982055;28;20047;-87
2022/05/13 07:03:15;;;;;;;7.07;3.40;;;;;;;23.03;48.05;101480.28;4977553;28;20051;-88
2022/05/13 07:05:44;;;;;;;4.13;3.17;;;;;;;22.97;47.55;101481.72;4979077;28;20050;-85
2022/05/13 07:08:12;;;;;;;4.13;2.67;;;;;;;22.98;47.87;101474.44;4989126;28;20038;-92
2022/05/13 07:10:42;;;;;;;5.38;3.00;;;;;;;22.98;48.85;101478.00;4999153;28;20050;-92
2022/05/13 07:13:12;;;;;;;5.93;3.13;;;;;;;22.98;47.79;101478.00;4981725;28;20058;-91
2022/05/13 07:15:39;;;;;;;8.05;3.58;;;;;;;22.96;47.72;101479.97;4996264;28;20062;-93
2022/05/13 07:18:07;;;;;;;7.57;3.40;;;;;;;22.95;47.76;101473.72;4961143;28;20057;-92
2022/05/13 07:20:35;;;;;;;8.70;3.63;;;;;;;22.96;48.98;101469.16;4961116;28;20051;-95
2022/05/13 07:23:03;;;;;;;5.65;3.22;;;;;;;22.98;49.69;101472.59;4960984;28;20055;-92
2022/05/13 07:25:31;;;;;;;5.85;3.42;;;;;;;23.00;49.48;101470.59;4961454;28;20081;-91
2022/05/13 07:27:59;;;;;;;5.05;2.53;;;;;;;23.02;49.87;101471.31;4962023;28;20061;-91
2022/05/13 07:30:27;;;;;;;5.05;2.80;;;;;;;23.04;50.35;101465.78;4961673;28;20421;-92
2022/05/13 07:32:55;;;;;;;6.63;2.85;;;;;;;23.05;49.78;101473.75;4959827;28;20356;-90
2022/05/13 07:35:22;;;;;;;7.13;3.22;;;;;;;23.06;49.31;101470.06;4975502;28;20113;-89
2022/05/13 07:37:51;;;;;;;5.65;3.08;;;;;;;23.09;49.53;101472.47;4974463;28;20046;-88
2022/05/13 07:43:04;;;;;;;5.40;3.28;;;;;;;23.12;48.61;101460.53;4975411;28;20383;-84
2022/05/13 07:45:45;;;;;;;5.68;3.28;;;;;;;23.14;49.16;101467.50;4975549;28;20043;-86
2022/05/13 07:48:13;;;;;;;9.63;3.42;;;;;;;23.16;49.73;101472.75;4958550;28;20058;-86
2022/05/13 07:50:42;;;;;;;8.73;4.03;;;;;;;23.17;49.41;101460.94;4975402;28;20046;-86
2022/05/13 07:53:09;;;;;;;8.45;3.70;;;;;;;23.18;49.45;101466.22;4975082;28;20059;-88
2022/05/13 07:55:36;;;;;;;6.13;3.30;;;;;;;23.19;49.48;101462.50;4976231;28;20050;-90
2022/05/13 07:58:04;;;;;;;6.97;3.30;;;;;;;23.20;49.40;101461.50;4974782;28;20051;-90
2022/05/13 08:00:36;;;;;;;6.03;3.60;;;;;;;23.20;49.30;101461.50;4976231;28;20494;-85
2022/05/13 08:03:13;;;;;;;4.70;3.13;;;;;;;23.22;49.76;101464.09;4959392;28;20054;-87
2022/05/13 08:05:50;;;;;;;8.35;3.15;;;;;;;23.23;50.08;101464.94;4959314;28;20051;-87
2022/05/13 08:08:26;;;;;;;7.85;3.28;;;;;;;23.24;49.94;101463.94;4961060;28;20064;-92
2022/05/13 08:10:57;;;;;;;4.97;3.10;;;;;;;23.25;49.93;101465.63;4959383;28;20051;-87
2022/05/13 08:13:25;;;;;;;7.32;3.13;;;;;;;23.26;49.98;101464.66;4975396;28;20058;-85
2022/05/13 08:15:53;;;;;;;8.10;3.38;;;;;;;23.26;50.39;101459.25;4978105;28;20043;-85
2022/05/13 08:18:21;;;;;;;7.13;3.53;;;;;;;23.27;50.35;101461.81;4976295;28;20038;-82
2022/05/13 08:20:50;;;;;;;6.07;3.40;;;;;;;23.30;50.18;101461.53;4976227;28;20054;-83
2022/05/13 08:23:19;;;;;;;7.13;3.58;;;;;;;23.31;49.83;101463.22;4976049;28;20054;-90
2022/05/13 08:25:48;;;;;;;6.75;3.00;;;;;;;23.32;49.92;101455.97;4976648;28;20062;-90
2022/05/13 08:28:18;;;;;;;5.28;2.90;;;;;;;23.32;49.92;101450.56;4958871;28;20051;-84
2022/05/13 08:30:45;;;;;;;6.00;3.17;;;;;;;23.33;50.25;101454.97;4972912;28;20059;-89
2022/05/13 08:33:13;;;;;;;7.18;3.47;;;;;;;23.34;50.64;101449.44;4975683;28;20375;-87
2022/05/13 08:35:47;;;;;;;6.65;3.20;;;;;;;23.35;50.61;101445.72;4958802;28;20083;-81
2022/05/13 08:38:18;;;;;;;7.65;3.00;;;;;;;23.36;50.71;101449.28;4975599;28;20047;-84
2022/05/13 08:40:55;;;;;;;5.95;3.13;;;;;;;23.38;50.74;101452.72;4975553;28;20380;-82
2022/05/13 08:43:28;;;;;;;9.13;4.00;;;;;;;23.38;50.70;101450.88;4975365;28;20058;-83
2022/05/13 08:46:01;;;;;;;7.18;3.60;;;;;;;23.39;50.96;101446.31;4975950;28;20051;-84
2022/05/13 08:48:39;;;;;;;7.15;4.10;;;;;;;23.41;50.82;101447.84;4975106;28;20054;-86
2022/05/13 08:51:24;;;;;;;12.77;7.10;;;;;;;23.40;48.75;101448.84;4974857;28;20057;-89
2022/05/13 08:54:00;;;;;;;15.93;6.07;;;;;;;23.39;46.24;101438.19;4975890;28;20066;-87
2022/05/13 08:56:32;;;;;;;9.90;4.75;;;;;;;23.35;45.80;101444.88;4978347;28;20514;-81
2022/05/13 08:59:12;;;;;;;12.43;5.57;;;;;;;23.32;45.45;101437.06;4979198;28;20055;-87
2022/05/13 09:01:49;;;;;;;7.68;4.40;;;;;;;23.28;45.03;101436.50;4976751;28;20058;-86
2022/05/13 09:04:37;;;;;;;11.40;4.68;;;;;;;23.28;45.88;101438.34;4977327;28;20054;-87
2022/05/13 09:07:10;;;;;;;10.38;4.80;;;;;;;23.28;46.74;101424.84;4961190;28;20055;-90
2022/05/13 09:09:41;;;;;;;7.93;4.57;;;;;;;23.28;48.06;101436.50;4978791;28;20081;-88
2022/05/13 09:12:32;;;;;;;10.30;4.43;;;;;;;23.30;48.95;101436.38;4960611;28;20062;-88
2022/05/13 09:15:09;;;;;;;10.18;4.65;;;;;;;23.31;49.27;101430.81;4978217;28;20051;-88
2022/05/13 09:17:44;;;;;;;10.40;5.07;;;;;;;23.32;49.02;101432.50;4977354;28;20426;-87
2022/05/13 09:20:13;;;;;;;8.82;4.53;;;;;;;23.33;49.31;101433.34;4979230;28;20054;-88
2022/05/13 09:22:45;;;;;;;7.72;4.40;;;;;;;23.34;49.72;101430.53;4978512;28;20047;-87
2022/05/13 09:25:50;;;;;;;8.07;5.28;;;;;;;23.34;49.69;101425.13;4979500;28;20051;-87
2022/05/13 09:28:17;;;;;;;9.20;4.55;;;;;;;23.35;49.63;101428.69;4985322;28;20046;-89
2022/05/13 09:30:48;;;;;;;6.57;4.20;;;;;;;23.36;50.27;101424.97;4982648;28;20070;-87
2022/05/13 09:33:34;;;;;;;11.05;4.43;;;;;;;23.38;49.61;101420.28;4999010;28;20053;-87
2022/05/13 09:36:27;;;;;;;9.30;4.32;;;;;;;23.38;49.60;101431.09;4999411;28;20094;-86
2022/05/13 09:38:58;;;;;;;9.00;4.20;;;;;;;23.39;49.88;101422.00;4981319;28;20058;-88
2022/05/13 09:41:31;;;;;;;7.97;3.97;;;;;;;23.38;49.91;101421.13;4981638;28;20748;-87
2022/05/13 09:44:19;;;;;;;8.05;3.78;;;;;;;23.38;50.07;101415.72;4997051;28;20042;-87
2022/05/13 09:47:07;;;;;;;6.70;4.25;;;;;;;23.39;50.03;101413.88;4995994;28;20497;-87
2022/05/13 09:49:54;;;;;;;7.03;4.07;;;;;;;23.39;50.06;101416.59;4996632;28;20351;-86
2022/05/13 09:52:33;;;;;;;8.77;3.75;;;;;;;23.38;49.94;101415.72;4996123;28;20046;-87
2022/05/13 09:55:15;;;;;;;9.65;4.70;;;;;;;23.40;50.03;101418.28;4980599;28;20061;-88
2022/05/13 09:57:43;;;;;;;12.05;4.50;;;;;;;23.40;49.55;101413.72;4997448;28;20046;-87
2022/05/13 10:00:22;;;;;;;6.57;3.70;;;;;;;23.40;49.59;101412.88;4981012;28;20065;-87
2022/05/13 10:03:06;;;;;;;7.72;4.07;;;;;;;23.39;49.55;101409.31;4999436;28;20050;-87
2022/05/13 10:05:34;;;;;;;6.43;4.03;;;;;;;23.40;49.85;101402.06;4997283;28;20050;-86
2022/05/13 10:08:17;;;;;;;6.43;4.20;;;;;;;23.41;49.91;101403.75;4997479;28;20362;-87
2022/05/13 10:14:02;;;;;;;7.60;3.78;;;;;;;23.41;49.55;101395.66;4997651;28;20050;-89
2022/05/13 10:16:38;;;;;;;8.95;3.80;;;;;;;23.40;49.57;101394.81;4997918;28;20058;-89
2022/05/13 10:19:37;;;;;;;7.38;3.65;;;;;;;23.40;50.76;101392.09;4996808;28;20049;-89
2022/05/13 10:22:13;;;;;;;5.43;3.60;;;;;;;23.40;49.95;101388.56;4995797;28;20061;-86
2022/05/13 10:24:52;;;;;;;5.25;3.70;;;;;;;23.40;49.79;101391.25;4996031;28;20081;-88
2022/05/13 10:27:36;;;;;;;8.15;3.80;;;;;;;23.40;49.77;101383.16;4997817;28;20050;-85
2022/05/13 10:30:12;;;;;;;6.38;3.33;;;;;;;23.41;49.95;101382.16;4998489;28;20413;-85
2022/05/13 10:32:58;;;;;;;6.65;3.72;;;;;;;23.40;50.02;101377.75;4998039;28;20046;-84
2022/05/13 10:35:32;;;;;;;6.10;3.17;;;;;;;23.40;50.00;101378.59;4998155;28;20042;-83
2022/05/13 10:38:03;;;;;;;4.93;2.78;;;;;;;23.42;49.93;101384.72;4997520;28;20046;-83
2022/05/13 10:40:40;;;;;;;4.28;3.35;;;;;;;23.40;49.69;101381.28;4995721;28;20057;-83
2022/05/13 10:43:25;;;;;;;5.57;3.53;;;;;;;23.42;49.54;101370.38;4997010;28;20053;-83
2022/05/13 10:46:06;;;;;;;5.20;3.33;;;;;;;23.41;49.64;101368.63;4995352;28;20054;-83
2022/05/13 10:48:34;;;;;;;5.25;3.17;;;;;;;23.41;49.67;101371.34;4996746;28;20478;-83
2022/05/13 10:51:23;;;;;;;5.75;3.53;;;;;;;23.41;49.52;101363.22;4996463;28;20058;-83
2022/05/13 10:53:56;;;;;;;6.93;3.33;;;;;;;23.42;49.45;101367.66;4995808;28;20046;-84
2022/05/13 10:56:56;;;;;;;4.70;3.42;;;;;;;23.40;49.80;101367.78;4995422;28;20053;-83
2022/05/13 10:59:34;;;;;;;6.60;3.58;;;;;;;23.41;49.85;101369.50;4996533;28;20053;-83
2022/05/13 11:02:40;;;;;;;5.90;3.55;;;;;;;23.41;49.67;101366.78;4997106;28;20053;-83
2022/05/13 11:05:29;;;;;;;4.90;3.35;;;;;;;23.41;49.78;101365.94;4994083;28;20043;-82
2022/05/13 11:08:06;;;;;;;5.22;2.72;;;;;;;23.42;50.04;101359.56;4995704;28;20494;-84
2022/05/13 11:10:51;;;;;;;5.43;3.20;;;;;;;23.42;50.15;101348.75;4993973;28;20062;-84
2022/05/13 11:13:52;;;;;;;6.80;3.42;;;;;;;23.42;49.78;101352.31;4977491;28;20055;-83
2022/05/13 11:16:20;;;;;;;5.30;3.53;;;;;;;23.43;50.10;101350.44;4974615;28;20051;-84
2022/05/13 11:18:56;;;;;;;5.15;3.28;;;;;;;23.42;49.91;101349.59;4976303;28;20046;-86
2022/05/13 11:21:39;;;;;;;7.45;3.65;;;;;;;23.42;50.30;101332.53;4975934;28;20478;-77
2022/05/13 11:28:14;;;;;;;7.72;3.40;;;;;;;23.43;51.11;101321.56;4994053;28;20046;-84
2022/05/13 11:30:51;;;;;;;5.32;3.15;;;;;;;23.45;50.84;101329.53;4976975;28;20386;-88
2022/05/13 11:33:37;;;;;;;6.00;3.70;;;;;;;23.45;50.82;101326.81;4978452;28;20054;-88
2022/05/13 11:36:15;;;;;;;5.65;3.50;;;;;;;23.44;50.11;101325.97;4994874;28;20541;-88
2022/05/13 11:39:01;;;;;;;7.28;3.60;;;;;;;23.45;50.37;101321.41;4995399;28;20046;-90
2022/05/13 11:41:55;;;;;;;4.90;3.42;;;;;;;23.45;50.42;101318.72;4995318;28;20058;-89
2022/05/13 11:44:38;;;;;;;4.88;3.05;;;;;;;23.44;50.47;101308.91;4994367;28;20050;-86
2022/05/13 11:47:18;;;;;;;5.97;3.47;;;;;;;23.44;50.34;101315.16;4994605;28;20061;-88
2022/05/13 11:49:47;;;;;;;6.13;3.60;;;;;;;23.44;50.54;101312.47;4993451;28;20062;-83
2022/05/13 11:52:14;;;;;;;4.15;2.83;;;;;;;23.45;50.53;101305.19;4992949;28;20053;-86
2022/05/13 11:54:43;;;;;;;5.03;3.35;;;;;;;23.44;50.76;101298.94;4994487;28;20113;-86
2022/05/13 11:57:16;;;;;;;7.78;3.60;;;;;;;23.45;50.52;101299.78;4994243;28;20054;-86
2022/05/13 11:59:50;;;;;;;5.13;3.22;;;;;;;23.45;50.50;101295.22;4994573;28;20051;-89
2022/05/13 12:02:30;;;;;;;4.45;3.30;;;;;;;23.45;50.64;101294.38;4958719;28;20077;-92
2022/05/13 12:05:09;;;;;;;5.10;2.80;;;;;;;23.45;50.57;101297.94;4960661;28;20046;-89
2022/05/13 12:07:49;;;;;;;5.65;3.03;;;;;;;23.46;50.22;101290.72;4972796;28;20050;-86
2022/05/13 12:10:23;;;;;;;7.18;3.38;;;;;;;23.46;50.43;101285.31;4977324;28;20057;-87
2022/05/13 12:13:19;;;;;;;6.43;3.17;;;;;;;23.47;50.50;101275.34;4975947;28;20058;-86